Flight Track Log - Related Links

Times and Time Zones

All times are in EDT time to prevent confusion due to time zone crossing. See the QXE2384 flight status page for this flight to view local times or setup timezone preferences in your user account.

Time Position Orientation Groundspeed Altitude Reporting Facility
EDT Latitude Longitude Course Direction KTS MPH feet Rate Location/Type
Tue 03:25:00 PM 47.7578 -122.5895 331° Northwest  Level FlightAware Approximate
Tue 03:26:00 PM 47.8132 -122.6358 331° Northwest  Level FlightAware Approximate
Tue 03:27:00 PM 47.8667 -122.6866 321° Northwest  Level FlightAware Approximate
Tue 03:28:00 PM 47.9162 -122.7461 321° Northwest  Level FlightAware Approximate
Tue 03:29:00 PM 47.9700 -122.7959 332° Northwest  Level FlightAware Approximate
Tue 03:30:00 PM 48.0259 -122.8412 330° Northwest  Level FlightAware Approximate
Tue 03:31:00 PM 48.0810 -122.8884 330° Northwest  Level FlightAware Approximate
Tue 03:32:00 PM 48.1361 -122.9361 326° Northwest  Level FlightAware Approximate
Tue 03:33:00 PM 48.1889 -122.9889 326° Northwest  Level FlightAware Approximate
Tue 03:34:00 PM 48.2434 -123.0380 332° Northwest  Level FlightAware Approximate
Tue 03:35:00 PM 48.2995 -123.0829 332° Northwest  Level FlightAware Approximate
Tue 03:36:00 PM 48.3524 -123.1358 326° Northwest  Level FlightAware Approximate
Tue 03:37:00 PM 48.4002 -123.1836 326° Northwest  Level FlightAware Approximate
Tue 03:38:00 PM 48.4532 -123.2365 326° Northwest  Level FlightAware Approximate
Tue 03:39:00 PM 48.5068 -123.2879 336° Northwest  Level FlightAware Approximate
Tue 03:40:00 PM 48.5544 -123.3378 327° Northwest  Level FlightAware Approximate
Tue 03:41:00 PM 48.6074 -123.3908 327° Northwest  Level FlightAware Approximate
Tue 03:42:00 PM 48.6333 -123.4167 327° Northwest  Level FlightAware Approximate
Tue 03:43:00 PM 48.6469 -123.4258 327° Northwest  Level Estimated
Tue 03:44:00 PM 48.6469 -123.4258 327° Northwest  Level Estimated
Tue 03:45:00 PM 48.6469 -123.4258 327° Northwest  Level Estimated
Tue 03:46:00 PM 48.6469 -123.4258 327° Northwest  Level Estimated
Tue 03:47:00 PM 48.6469 -123.4258 327° Northwest  Level Estimated
Tue 03:48:00 PM 48.6469 -123.4258 327° Northwest  Level Estimated
Tue 03:49:00 PM 48.6469 -123.4258 327° Northwest  Level Estimated
Tue 03:50:00 PM 48.6469 -123.4258 327° Northwest  Level Estimated
Tue 03:51:00 PM 48.6469 -123.4258 327° Northwest  Level Estimated
Tue 03:52:00 PM 48.6469 -123.4258 327° Northwest  Level Estimated
Tue 03:53:00 PM 48.6469 -123.4258 327° Northwest  Level Estimated
Tue 03:54:00 PM 48.6469 -123.4258 327° Northwest  Level Estimated
Tue 03:55:00 PM 48.6469 -123.4258 327° Northwest  Level Estimated
Tue 03:56:00 PM 48.6469 -123.4258 327° Northwest  Level Estimated
Tue 03:57:00 PM 48.6469 -123.4258 327° Northwest  Level Estimated

Login

Don't have an account? Register now (free) for customized features, flight alerts, and more!